createdAt,value
2023-01-26T00:01:41.177Z,0.70
2023-01-26T00:09:15.208Z,0.50
2023-01-26T00:11:42.738Z,0.40
2023-01-26T00:14:10.164Z,0.40
2023-01-26T00:16:37.619Z,0.20
2023-01-26T00:19:05.258Z,0.10
2023-01-26T00:21:32.737Z,0.30
2023-01-26T00:24:00.707Z,0.10
2023-01-26T00:26:28.963Z,0.00
2023-01-26T00:34:26.290Z,-0.20
2023-01-26T00:36:53.501Z,-0.40
2023-01-26T00:39:28.921Z,-0.50
2023-01-26T00:42:11.883Z,-0.70
2023-01-26T00:44:42.158Z,-1.00
2023-01-26T00:47:12.971Z,-0.50
2023-01-26T00:50:15.593Z,-1.00
2023-01-26T00:52:46.227Z,-0.80
2023-01-26T00:57:53.904Z,-0.50
2023-01-26T01:00:21.436Z,0.00
2023-01-26T01:02:48.873Z,-0.10
2023-01-26T01:05:16.974Z,-0.40
2023-01-26T01:07:44.524Z,-0.60
2023-01-26T01:10:12.818Z,-0.80
2023-01-26T01:12:40.622Z,-0.80
2023-01-26T01:15:11.066Z,-0.80
2023-01-26T01:22:43.783Z,-1.40
2023-01-26T01:25:13.880Z,-1.40
2023-01-26T01:27:42.451Z,-1.40
2023-01-26T01:30:11.326Z,-1.20
2023-01-26T01:32:40.029Z,-0.80
2023-01-26T01:35:08.649Z,-0.90
2023-01-26T01:37:36.661Z,-1.00
2023-01-26T01:42:51.639Z,-0.90
2023-01-26T01:45:40.106Z,-1.40
2023-01-26T01:48:15.288Z,-1.30
2023-01-26T01:50:45.874Z,-0.90
2023-01-26T01:53:24.087Z,-0.70
2023-01-26T01:55:56.731Z,-1.00
2023-01-26T01:58:26.625Z,-0.90
2023-01-26T02:03:39.085Z,-1.00
2023-01-26T02:06:12.381Z,-1.00
2023-01-26T02:08:43.576Z,-1.20
2023-01-26T02:11:16.417Z,-1.30
2023-01-26T02:13:47.449Z,-1.30
2023-01-26T02:16:17.515Z,-0.90
2023-01-26T02:18:49.338Z,-1.00
2023-01-26T02:24:12.320Z,-1.40
2023-01-26T02:26:40.827Z,-1.30
2023-01-26T02:29:10.056Z,-1.10
2023-01-26T02:31:38.644Z,-0.80
2023-01-26T02:34:06.042Z,-0.30
2023-01-26T02:36:34.183Z,0.00
2023-01-26T02:39:19.335Z,-0.10
2023-01-26T02:47:15.701Z,-0.60
2023-01-26T02:49:50.252Z,-0.80
2023-01-26T02:52:20.740Z,-0.60
2023-01-26T02:55:17.441Z,-0.80
2023-01-26T02:57:45.139Z,-1.30
2023-01-26T03:00:16.182Z,-1.50
2023-01-26T03:02:45.475Z,-1.50
2023-01-26T03:05:13.345Z,-1.10
2023-01-26T03:12:41.469Z,-1.00
2023-01-26T03:15:28.125Z,-0.60
2023-01-26T03:18:35.027Z,-0.90
2023-01-26T03:21:22.101Z,-1.30
2023-01-26T03:24:07.711Z,-1.10
2023-01-26T03:26:58.314Z,-1.20
2023-01-26T03:29:30.082Z,-1.00
2023-01-26T03:36:58.356Z,-0.20
2023-01-26T03:39:43.731Z,-0.40
2023-01-26T03:42:28.710Z,-0.20
2023-01-26T03:45:14.112Z,-0.10
2023-01-26T03:47:59.286Z,0.30
2023-01-26T03:50:44.091Z,-0.10
2023-01-26T03:53:35.002Z,-0.60
2023-01-26T03:59:10.608Z,-0.20
2023-01-26T04:01:40.166Z,-0.10
2023-01-26T04:04:27.073Z,-0.10
2023-01-26T04:07:12.138Z,-0.30
2023-01-26T04:09:40.401Z,-0.60
2023-01-26T04:12:10.179Z,-0.90
2023-01-26T04:14:56.902Z,-1.20
2023-01-26T04:22:45.880Z,-1.50
2023-01-26T04:25:15.964Z,-1.20
2023-01-26T04:27:44.298Z,-1.20
2023-01-26T04:30:13.681Z,-1.30
2023-01-26T04:32:40.998Z,-1.00
2023-01-26T04:35:10.171Z,-1.00
2023-01-26T04:37:38.633Z,-1.20
2023-01-26T04:43:01.458Z,-1.30
2023-01-26T04:45:28.844Z,-0.90
2023-01-26T04:47:56.625Z,-0.90
2023-01-26T04:50:23.884Z,-0.90
2023-01-26T04:52:51.750Z,-1.50
2023-01-26T04:55:19.593Z,-1.60
2023-01-26T04:57:47.286Z,-1.70
2023-01-26T05:00:16.697Z,-1.70
2023-01-26T05:07:49.916Z,-1.30
2023-01-26T05:10:17.961Z,-1.70
2023-01-26T05:12:45.384Z,-1.80
2023-01-26T05:15:12.878Z,-2.20
2023-01-26T05:17:40.413Z,-1.70
2023-01-26T05:20:10.907Z,-1.50
2023-01-26T05:22:38.455Z,-1.50
2023-01-26T05:33:04.382Z,-1.70
2023-01-26T05:35:31.825Z,-1.90
2023-01-26T05:37:59.171Z,-1.90
2023-01-26T05:40:29.807Z,-2.20
2023-01-26T05:42:57.087Z,-2.30
2023-01-26T05:45:25.114Z,-2.40
2023-01-26T05:47:52.532Z,-2.70
2023-01-26T05:50:22.996Z,-2.50
2023-01-26T05:57:58.267Z,-2.50
2023-01-26T06:00:25.954Z,-2.40
2023-01-26T06:02:53.325Z,-2.30
2023-01-26T06:05:21.163Z,-2.40
2023-01-26T06:07:48.510Z,-2.20
2023-01-26T06:10:17.902Z,-2.10
2023-01-26T06:12:45.875Z,-1.80
2023-01-26T06:15:14.189Z,-2.10
2023-01-26T06:20:24.340Z,-2.50
2023-01-26T06:22:52.188Z,-2.20
2023-01-26T06:25:21.832Z,-2.00
2023-01-26T06:27:51.879Z,-2.20
2023-01-26T06:30:19.298Z,-2.30
2023-01-26T06:32:48.464Z,-2.40
2023-01-26T06:35:16.429Z,-2.50
2023-01-26T06:37:51.193Z,-2.60
2023-01-26T06:42:59.579Z,-2.20
2023-01-26T06:45:27.402Z,-2.10
2023-01-26T06:47:55.380Z,-2.10
2023-01-26T06:50:27.025Z,-2.10
2023-01-26T06:52:56.510Z,-1.90
2023-01-26T06:55:35.340Z,-2.00
2023-01-26T06:58:04.011Z,-1.90
2023-01-26T07:05:40.134Z,-2.20
2023-01-26T07:08:10.313Z,-2.20
2023-01-26T07:10:39.503Z,-1.90
2023-01-26T07:13:12.576Z,-2.40
2023-01-26T07:15:41.008Z,-2.00
2023-01-26T07:18:16.106Z,-2.20
2023-01-26T07:20:44.547Z,-2.20
2023-01-26T07:25:51.490Z,-2.50
2023-01-26T07:28:18.983Z,-2.50
2023-01-26T07:30:46.429Z,-2.30
2023-01-26T07:33:14.133Z,-2.40
2023-01-26T07:35:41.580Z,-2.30
2023-01-26T07:38:08.864Z,-1.80
2023-01-26T07:40:40.215Z,-1.40
2023-01-26T07:43:11.950Z,-1.10
2023-01-26T07:50:46.826Z,-1.90
2023-01-26T07:53:16.691Z,-1.90
2023-01-26T07:55:44.799Z,-2.10
2023-01-26T07:58:12.801Z,-2.20
2023-01-26T08:00:40.345Z,-2.50
2023-01-26T08:03:14.920Z,-2.50
2023-01-26T08:05:56.678Z,-2.80
2023-01-26T08:08:25.054Z,-2.50
2023-01-26T08:15:14.887Z,-2.00
2023-01-26T08:17:42.714Z,-2.40
2023-01-26T08:20:12.418Z,-2.70
2023-01-26T08:22:43.371Z,-2.30
2023-01-26T08:25:18.236Z,-2.40
2023-01-26T08:27:48.353Z,-2.50
2023-01-26T08:30:19.042Z,-2.40
2023-01-26T08:32:48.190Z,-2.60
2023-01-26T08:40:30.536Z,-2.70
2023-01-26T08:43:29.964Z,-2.80
2023-01-26T08:49:56.822Z,-2.40
2023-01-26T08:56:03.830Z,-2.40
2023-01-26T08:58:33.383Z,-2.80
2023-01-26T09:01:12.332Z,-2.60
2023-01-26T09:03:46.397Z,-2.90
2023-01-26T09:09:22.201Z,-3.00
2023-01-26T09:11:51.155Z,-3.20
2023-01-26T09:14:20.420Z,-3.20
2023-01-26T09:16:48.272Z,-3.10
2023-01-26T09:19:16.322Z,-2.90
2023-01-26T09:21:46.733Z,-3.10
2023-01-26T09:24:14.314Z,-2.70
2023-01-26T09:31:47.863Z,-2.30
2023-01-26T09:35:13.994Z,-2.50
2023-01-26T09:37:44.672Z,-2.30
2023-01-26T09:40:31.460Z,-2.50
2023-01-26T09:43:07.613Z,-2.60
2023-01-26T09:45:45.307Z,-2.30
2023-01-26T09:48:25.277Z,-2.00
2023-01-26T09:50:57.870Z,-2.20
2023-01-26T09:59:01.817Z,-2.20
2023-01-26T10:01:46.432Z,-2.50
2023-01-26T10:04:30.354Z,-2.20
2023-01-26T10:06:59.684Z,-2.50
2023-01-26T10:09:34.790Z,-2.20
2023-01-26T10:13:01.940Z,-1.90
2023-01-26T10:15:36.592Z,-1.90
2023-01-26T10:18:18.639Z,-1.90
2023-01-26T10:26:26.439Z,-1.60
2023-01-26T10:28:57.702Z,-1.10
2023-01-26T10:31:32.862Z,-0.90
2023-01-26T10:34:07.652Z,-0.80
2023-01-26T10:36:47.583Z,-0.90
2023-01-26T10:39:18.311Z,-0.80
2023-01-26T10:41:59.038Z,-0.80
2023-01-26T10:44:47.892Z,-0.60
2023-01-26T10:54:57.264Z,-0.70
2023-01-26T10:57:30.344Z,-0.70
2023-01-26T11:00:02.918Z,-0.70
2023-01-26T11:03:24.039Z,-0.80
2023-01-26T11:06:06.922Z,-0.80
2023-01-26T11:08:47.829Z,-0.70
2023-01-26T11:11:59.949Z,-0.70
2023-01-26T11:14:41.793Z,-0.40
2023-01-26T11:17:26.075Z,-0.30
2023-01-26T11:23:19.843Z,-1.20
2023-01-26T11:26:07.910Z,-1.10
2023-01-26T11:28:48.901Z,-1.30
2023-01-26T11:31:30.134Z,-1.70
2023-01-26T11:34:11.133Z,-1.80
2023-01-26T11:36:52.077Z,-1.60
2023-01-26T11:42:47.919Z,-1.60
2023-01-26T11:45:47.290Z,-1.90
2023-01-26T11:48:23.335Z,-1.80
2023-01-26T11:50:56.581Z,-1.70
2023-01-26T11:53:48.808Z,-1.30
2023-01-26T11:56:49.636Z,-1.70
2023-01-26T11:59:29.713Z,-1.70
2023-01-26T12:04:47.952Z,-1.10
2023-01-26T12:07:24.452Z,-1.30
2023-01-26T12:09:52.678Z,-1.20
2023-01-26T12:12:51.785Z,-1.30
2023-01-26T12:15:37.963Z,-1.30
2023-01-26T12:18:16.392Z,-1.20
2023-01-26T12:21:07.318Z,-1.30
2023-01-26T12:38:17.048Z,-1.10
2023-01-26T12:40:54.567Z,-0.80
2023-01-26T12:43:34.804Z,-1.00
2023-01-26T12:46:04.319Z,-0.40
2023-01-26T12:48:42.629Z,0.10
2023-01-26T12:51:21.422Z,-0.20
2023-01-26T12:53:58.192Z,-0.50
2023-01-26T13:05:19.198Z,-1.00
2023-01-26T13:07:56.575Z,-0.90
2023-01-26T13:10:47.218Z,-0.70
2023-01-26T13:13:54.424Z,-0.90
2023-01-26T13:16:40.438Z,-0.60
2023-01-26T13:19:36.428Z,-0.80
2023-01-26T13:22:06.927Z,-0.40
2023-01-26T13:27:36.398Z,-0.70
2023-01-26T13:30:25.176Z,-0.20
2023-01-26T13:32:57.290Z,-0.40
2023-01-26T13:35:27.108Z,0.00
2023-01-26T13:38:00.143Z,-0.20
2023-01-26T13:40:31.583Z,0.00
2023-01-26T13:43:25.316Z,-0.30
2023-01-26T13:51:12.687Z,0.10
2023-01-26T13:53:44.349Z,0.10
2023-01-26T13:56:32.103Z,0.20
2023-01-26T13:59:08.932Z,0.10
2023-01-26T14:01:48.781Z,0.30
2023-01-26T14:04:23.098Z,0.40
2023-01-26T14:06:55.913Z,0.30
2023-01-26T14:25:24.964Z,0.40
2023-01-26T14:27:57.304Z,-1.00
2023-01-26T14:30:34.497Z,-0.90
2023-01-26T14:33:13.143Z,-0.50
2023-01-26T14:35:42.233Z,-0.30
2023-01-26T14:38:15.119Z,-0.10
2023-01-26T14:40:50.061Z,0.10
2023-01-26T14:49:05.492Z,0.70
2023-01-26T14:51:55.733Z,0.80
2023-01-26T14:54:44.698Z,1.20
2023-01-26T14:57:20.138Z,0.30
2023-01-26T14:59:50.724Z,0.60
2023-01-26T15:02:24.135Z,0.60
2023-01-26T15:08:05.010Z,0.90
2023-01-26T15:10:36.459Z,0.90
2023-01-26T15:13:23.545Z,0.70
2023-01-26T15:16:13.908Z,0.90
2023-01-26T15:18:42.784Z,1.00
2023-01-26T15:21:40.684Z,1.00
2023-01-26T15:24:14.723Z,1.30
2023-01-26T15:31:02.873Z,0.90
2023-01-26T15:33:46.002Z,0.70
2023-01-26T15:36:32.699Z,0.30
2023-01-26T15:39:03.805Z,0.20
2023-01-26T15:41:32.635Z,0.40
2023-01-26T15:44:01.863Z,0.80
2023-01-26T15:46:30.730Z,0.80
2023-01-26T15:49:13.696Z,0.90
2023-01-26T15:57:36.441Z,0.90
2023-01-26T16:00:07.599Z,0.80
2023-01-26T16:02:37.404Z,0.80
2023-01-26T16:05:17.778Z,0.50
2023-01-26T16:10:30.756Z,0.70
2023-01-26T16:19:48.442Z,0.70
2023-01-26T16:22:34.146Z,0.80
2023-01-26T16:25:11.913Z,0.60
2023-01-26T16:27:47.254Z,0.30
2023-01-26T16:30:19.224Z,0.20
2023-01-26T16:32:57.309Z,0.30
2023-01-26T16:35:44.758Z,0.40
2023-01-26T16:38:14.475Z,0.50
2023-01-26T16:46:00.483Z,0.70
2023-01-26T16:48:34.396Z,0.10
2023-01-26T16:51:27.980Z,0.20
2023-01-26T16:54:09.952Z,0.20
2023-01-26T16:56:40.406Z,0.20
2023-01-26T16:59:12.373Z,0.30
2023-01-26T17:01:44.543Z,0.30
2023-01-26T17:08:37.328Z,-0.10
2023-01-26T17:11:06.338Z,-0.20
2023-01-26T17:13:36.682Z,-0.10
2023-01-26T17:16:05.057Z,-0.10
2023-01-26T17:18:35.214Z,-0.40
2023-01-26T17:21:05.695Z,-0.30
2023-01-26T17:23:35.464Z,0.00
2023-01-26T17:30:54.799Z,-0.40
2023-01-26T17:33:25.699Z,-0.50
2023-01-26T17:36:07.287Z,-0.60
2023-01-26T17:38:39.918Z,-0.50
2023-01-26T17:41:10.890Z,-0.50
2023-01-26T17:43:38.657Z,-0.80
2023-01-26T17:46:15.734Z,-0.70
2023-01-26T17:53:54.916Z,-0.90
2023-01-26T17:56:25.568Z,-1.10
2023-01-26T17:58:56.435Z,-1.00
2023-01-26T18:01:32.067Z,-0.70
2023-01-26T18:04:01.883Z,-0.50
2023-01-26T18:06:30.729Z,-0.40
2023-01-26T18:09:02.341Z,-0.30
2023-01-26T18:11:42.282Z,-0.40
2023-01-26T18:27:38.634Z,-0.30
2023-01-26T18:30:09.507Z,-0.50
2023-01-26T18:32:45.475Z,-0.50
2023-01-26T18:35:15.860Z,-0.20
2023-01-26T18:37:46.244Z,-0.40
2023-01-26T18:40:17.589Z,-0.50
2023-01-26T18:42:48.833Z,-0.20
2023-01-26T18:45:16.907Z,-0.30
2023-01-26T18:53:04.233Z,0.00
2023-01-26T18:55:37.393Z,-0.40
2023-01-26T18:58:08.368Z,0.00
2023-01-26T19:00:39.076Z,0.20
2023-01-26T19:03:32.792Z,-0.10
2023-01-26T19:06:09.242Z,-0.10
2023-01-26T19:08:41.552Z,-0.20
2023-01-26T19:11:12.696Z,-0.10
2023-01-26T19:18:51.911Z,-0.30
2023-01-26T19:21:25.082Z,-0.50
2023-01-26T19:23:59.915Z,-0.60
2023-01-26T19:26:46.764Z,-0.70
2023-01-26T19:29:22.612Z,-0.40
2023-01-26T19:31:52.673Z,-0.20
2023-01-26T19:34:28.448Z,-0.40
2023-01-26T19:39:52.560Z,-0.30
2023-01-26T19:42:25.011Z,-0.30
2023-01-26T19:45:16.660Z,-0.40
2023-01-26T19:47:46.227Z,-0.20
2023-01-26T19:50:16.199Z,-0.20
2023-01-26T19:52:46.695Z,0.40
2023-01-26T19:55:21.769Z,0.00
2023-01-26T19:57:56.385Z,-0.20
2023-01-26T20:05:43.427Z,-0.40
2023-01-26T20:08:12.423Z,-0.10
2023-01-26T20:10:48.777Z,-0.20
2023-01-26T20:13:21.504Z,-0.20
2023-01-26T20:15:49.623Z,-0.40
2023-01-26T20:18:20.993Z,0.10
2023-01-26T20:27:31.425Z,0.10
2023-01-26T20:29:59.710Z,-0.20
2023-01-26T20:32:42.320Z,-0.40
2023-01-26T20:35:17.963Z,-0.20
2023-01-26T20:37:51.980Z,0.30
2023-01-26T20:40:32.713Z,0.20
2023-01-26T20:43:15.527Z,0.20
2023-01-26T20:51:02.993Z,0.00
2023-01-26T20:53:32.142Z,-0.20
2023-01-26T20:56:02.788Z,-0.20
2023-01-26T20:58:34.061Z,-0.30
2023-01-26T21:01:08.283Z,-0.20
2023-01-26T21:03:37.128Z,-0.20
2023-01-26T21:06:08.440Z,-0.20
2023-01-26T21:14:04.799Z,-0.10
2023-01-26T21:16:42.987Z,0.00
2023-01-26T21:19:11.294Z,-0.10
2023-01-26T21:21:42.144Z,0.00
2023-01-26T21:24:10.931Z,-0.10
2023-01-26T21:26:39.399Z,0.10
2023-01-26T21:29:17.404Z,0.00
2023-01-26T21:36:53.388Z,0.20
2023-01-26T21:39:22.807Z,0.50
2023-01-26T21:41:56.509Z,0.40
2023-01-26T21:44:27.993Z,0.60
2023-01-26T21:46:58.139Z,0.60
2023-01-26T21:49:28.088Z,0.30
2023-01-26T21:52:15.684Z,0.10
2023-01-26T21:59:52.002Z,0.00
2023-01-26T22:02:19.976Z,0.20
2023-01-26T22:04:48.690Z,0.10
2023-01-26T22:07:16.348Z,0.40
2023-01-26T22:09:43.894Z,0.20
2023-01-26T22:12:11.414Z,-0.10
2023-01-26T22:14:39.652Z,-0.20
2023-01-26T22:19:48.610Z,-0.10
2023-01-26T22:22:16.344Z,0.00
2023-01-26T22:24:43.819Z,0.10
2023-01-26T22:27:12.395Z,0.30
2023-01-26T22:29:40.362Z,0.30
2023-01-26T22:32:09.393Z,0.10
2023-01-26T22:34:37.085Z,0.20
2023-01-26T22:52:58.231Z,0.30
2023-01-26T22:55:43.664Z,0.70
2023-01-26T22:58:56.545Z,0.60
2023-01-26T23:01:37.847Z,0.50
2023-01-26T23:04:06.820Z,0.80
2023-01-26T23:06:34.320Z,1.00
2023-01-26T23:09:05.386Z,1.20
2023-01-26T23:11:35.743Z,1.30
2023-01-26T23:19:12.425Z,1.70
2023-01-26T23:21:46.226Z,1.60
2023-01-26T23:24:20.514Z,2.10
2023-01-26T23:26:57.577Z,2.10
2023-01-26T23:29:32.821Z,2.20
2023-01-26T23:32:03.102Z,2.10
2023-01-26T23:34:34.962Z,2.10
2023-01-26T23:53:18.470Z,2.30
2023-01-26T23:55:51.018Z,2.20
